UUEEUKKK

Guest
Details From UUEE - Moscou Sheremetyevo
To UKKK - Zhuliany Intl
Flight Number -
Tags Generated
Created
Modified
Stats Distance 417 nm / 773 km
Max Altitude 0 ft / 0 m
Waypoints 3
Social Downloads 1
Likes 0
Share VATSIM

Download

Looking for another format? Having issues loading an existing format? Contact us
Advertisement - Login to hide

Notes

Generated

Route

UUEE BB001 UKKK

ID Type Via Altitude Latitude Longitude Leg Dist Tot Dist Heading (true) Name
O UUEE APT - 0 ft / 0 m 55.96979˚ 37.38673˚ - 0 nm - -
BB001 FIX - 0 ft / 0 m 50.51534˚ 30.53133˚ 409 nm 409 nm 220° / 214° -
O UKKK APT - 0 ft / 0 m 50.40113˚ 30.43699˚ 7 nm 417 nm 208° / 208° -

Altitude Profile

Advertisement - Login to hide

Weather


0- 5 10 15 20 25 30 35+ Temperature / ° C

Clouds and Precipitation
Forecast for 2017-12-17 12:00 UTC. Updated an hour ago

Ground ~20,000 ft ~40,000 ft Winds

UUEE

Details ICAO UUEE (SVO)
Name Moscou Sheremetyevo
Region Russia
Timezone Europe/Moscow (UTC+3.0)
Stats Elevation 622 ft / 190 m (AMSL)
Location 55.972642° 37.414586°
Runways 2
Magnetic Variation 11.167° E

METAR

UUEE 170830Z 21007MPS 9999 BKN016 05/03 Q1006 R24L/290051 NOSIG

Decode

TAF

TAF UUEE 170750Z 1709/1809 23008G13MPS 9999 OVC015 TX06/1709Z TNM01/1803Z BECMG 1712/1716 29008MPS BECMG 1716/1720 35005MPS BECMG 1800/1802 05006MPS

Decode

Departure Runways

ID Width Length Bearing (true) Bearing (mag) Surface Threshold Offset Overrun Length
07L 197 ft / 60 m 11,613 ft / 3,540 m 74.99° 63.82° Concrete 0 ft / 0 m 240 ft / 73 m
07R 197 ft / 60 m 12,127 ft / 3,696 m 75.03° 63.86° Concrete 0 ft / 0 m 235 ft / 72 m
25L 197 ft / 60 m 12,127 ft / 3,696 m 255.08° 243.91° Concrete 0 ft / 0 m 245 ft / 75 m
25R 197 ft / 60 m 11,613 ft / 3,540 m 255.04° 243.87° Concrete 0 ft / 0 m 245 ft / 75 m

UKKK

Details ICAO UKKK (IEV)
Name ZHULIANY INTL
Region Ukraine
Timezone Europe/Kiev (UTC+2.0)
Stats Elevation 586 ft / 179 m (AMSL)
Location 50.401694° 30.449697°
Runways 1
Magnetic Variation 7.598° E

METAR

UKKK 170830Z 33005MPS 9999 OVC011 02/M01 Q1015 R26/290056 NOSIG

Decode

TAF

TAF TAF UKKK 162307Z 1700/1724 30006G12MPS 4000 BR OVC007 TEMPO 1700/1707 1000 BR BKN003 BECMG 1707/1709 34005G10MPS 9999 NSW BKN020 TX03/1700Z TNM01/1724Z

Decode

Destination Runways

ID Width Length Bearing (true) Bearing (mag) Surface Threshold Offset Overrun Length
08 161 ft / 49 m 5,926 ft / 1,806 m 86.02° 78.42° Concrete 0 ft / 0 m 0 ft / 0 m
26 161 ft / 49 m 5,926 ft / 1,806 m 266.04° 258.44° Concrete 0 ft / 0 m 1,132 ft / 345 m

Approach Navaids

Runway Type Ident Frequency Range Bearing (true) Bearing (mag) Slope Elevation
08 Localiser IKI 111.70 MHz 18 nm / 33 km 86.26° 78.66° - 586 ft / 179 m (AMSL)
08 Glidescope IKI 111.70 MHz 10 nm / 19 km 86.03° 78.43° 3.00° 586 ft / 179 m (AMSL)
26 Localiser IKV 108.30 MHz 18 nm / 33 km 266.67° 259.08° - 586 ft / 179 m (AMSL)
26 Glidescope IKV 108.30 MHz 10 nm / 19 km 266.03° 258.43° 3.00° 586 ft / 179 m (AMSL)

Popular Alternatives